Tiempo atmosférico en la estación meteorológica de Orozko, Bizkaia (270 m.)



Fecha
DESCASC
Temp. máxima en grados centígrados (hora)
DESCASC
Temp. mínima en grados centígrados (hora)
DESCASC
Temp. media en grados centígrados
DESCASC
Racha de viento máxima en m/sg (hora)
DESCASC
Velocidad máxima media en intervalos de 10 minutos(hora)
DESCASC
Precipitaciones diarias en mm
DESCASC
Precipitaciones de 00:00 a 06:00 en mm
DESCASC
Precipitaciones de 06:00 a 12:00 en mm
DESCASC
Precipitaciones de 12:00 a 18:00 en mm
DESCASC
Precipitaciones de 18:00 a 24:00 en mm
DESCASC
22-11-2020 15.1 (14:40) 1.7 (07:40) 8.4 3.06 (16:50) 1.94 (15:50) 0 0 0 0 0
21-11-2020 13.1 (14:20) 0.8 (09:10) 7 3.61 (15:10) 2.22 (15:10) 0 0 0 0 0
20-11-2020 13.5 (13:40) 3.4 (23:59) 8.5 4.44 (16:00) 1.67 (13:30) 0.8 0.6 0.2 0 0
19-11-2020 12.2 (09:20) 7.9 (00:00) 10 5.28 (10:00) 2.22 (10:00) 3.4 0 0.8 1.4 1.2
18-11-2020 24.1 (14:50) 10.4 (00:00) 17.3 13.89 (02:40) 6.11 (02:40) 0 0 0 0 0
17-11-2020 19.2 (14:50) 4.4 (00:00) 11.8 9.72 (22:10) 4.44 (22:40) 0 0 0 0 0
16-11-2020 15.4 (15:20) 6.3 (00:00) 10.8 3.61 (12:50) 1.67 (15:30) 3 1.2 1.8 0 0
15-11-2020 20.9 (13:20) 11.9 (00:00) 16.4 16.11 (04:10) 6.39 (04:10) 9.2 0 0 0 9.2
14-11-2020 19.6 (15:10) 7 (00:00) 13.3 16.11 (15:00) 6.94 (14:50) 0 0 0 0 0
13-11-2020 19.3 (14:30) 7 (00:00) 13.1 3.61 (15:30) 2.22 (17:00) 0 0 0 0 0
12-11-2020 21.7 (14:20) 7.1 (00:00) 14.4 3.61 (13:30) 1.94 (14:30) 0 0 0 0 0
11-11-2020 19.3 (15:10) 6.8 (00:00) 13 12.78 (07:10) 5.28 (16:50) 0 0 0 0 0
10-11-2020 16.9 (16:00) 7.7 (00:00) 12.3 3.33 (16:00) 1.67 (13:50) 4 2.2 1 0.8 0
09-11-2020 21 (14:20) 9.1 (00:00) 15.1 10.83 (12:00) 5.56 (12:00) 0 0 0 0 0
08-11-2020 20.6 (13:30) 12.9 (00:00) 16.8 16.67 (23:59) 5.28 (06:20) 0 0 0 0 0
07-11-2020 18.3 (00:50) 12.6 (00:00) 15.4 15 (00:30) 5.28 (00:50) 15.6 2.2 13.4 0 0
06-11-2020 19.6 (13:10) 15.1 (00:00) 17.4 23.89 (11:10) 10.83 (11:10) 0 0 0 0 0
05-11-2020 19.1 (15:20) 5.7 (00:00) 12.4 12.5 (23:59) 5 (22:20) 0 0 0 0 0
04-11-2020 13.1 (13:00) 6.7 (00:00) 9.9 6.11 (14:20) 2.22 (14:30) 0.6 0.2 0.4 0 0
03-11-2020 11.6 (00:00) 7.4 (00:00) 9.5 6.67 (14:50) 2.22 (14:40) 13.6 7.2 0.8 3.6 2
02-11-2020 25.2 (14:40) 11.6 (00:00) 18.4 13.89 (01:00) 5.28 (06:00) 1.6 0 0 0.4 1.2
01-11-2020 24.4 (13:10) 18.8 (00:00) 21.6 12.5 (22:30) 5 (18:50) 0 0 0 0 0
31-10-2020 25.2 (15:20) 12.3 (00:00) 18.8 10.56 (07:50) 4.17 (02:30) 0 0 0 0 0
30-10-2020 24.5 (14:40) 7.6 (00:00) 16 7.78 (23:59) 2.78 (23:50) 0 0 0 0 0
29-10-2020 22.1 (14:40) 6.5 (00:00) 14.3 3.89 (13:00) 2.22 (15:10) 0 0 0 0 0
28-10-2020 16.8 (16:30) 8.5 (00:00) 12.6 4.72 (01:20) 1.39 (02:10) 0 0 0 0 0
27-10-2020 18 (13:30) 6.2 (00:00) 12.1 12.22 (17:10) 5.56 (17:20) 0 0 0 0 0
26-10-2020 14.5 (13:10) 4.7 (00:00) 9.6 6.94 (14:10) 2.78 (14:20) 0.2 0.2 0 0 0

Gráficas

Temp. máximas Temp. mínimas Temp. medias Precipitaciones Rachas de viento máximas Velocidades máximas media en intervalos de 10 minutos

Datos horarios

Fecha y hora oficial Temperatura (ºC) Velocidad del viento (km/h) Dirección del viento Racha (km/h) Dirección de racha Precipitación (mm) Presión (hPa) Tendencia (hPa) Humedad (%)
2020-11-24 23:00:00 12.8 12 Oeste 33 Sudoeste 0 -- -- 52
2020-11-24 22:00:00 13 8 Sudoeste 32 Sudoeste 0 -- -- 50
2020-11-24 21:00:00 13.1 17 Oeste 38 Sudoeste 0 -- -- 49
2020-11-24 20:00:00 8.7 3 Sudeste 15 Oeste 0 -- -- 72
2020-11-24 19:00:00 8.7 5 Sur 9 Sudeste 0 -- -- 74
2020-11-24 18:00:00 9.8 5 Sur 9 Norte 0 -- -- 71
2020-11-24 17:00:00 12.1 3 Sudoeste 13 Sudeste 0 -- -- 65
2020-11-24 16:00:00 14.5 4 Sudoeste 13 Oeste 0 -- -- 62
2020-11-24 15:00:00 16.3 5 Sudoeste 10 Norte 0 -- -- 51
2020-11-24 14:00:00 16.6 6 Nordeste 16 Este 0 -- -- 42
2020-11-24 13:00:00 16 6 Norte 19 Sudoeste 0 -- -- 43
2020-11-24 12:00:00 15.2 8 Oeste 20 Oeste 0 -- -- 42
2020-11-24 11:00:00 14.1 8 Noroeste 23 Oeste 0 -- -- 45
2020-11-24 10:00:00 9 6 Nordeste 18 Sudoeste 0 -- -- 72
2020-11-24 09:00:00 5.3 3 Sur 23 Este 0 -- -- 85
2020-11-24 08:00:00 4.1 4 Sur 15 Sur 0 -- -- 88
2020-11-24 07:00:00 3.3 4 Sudoeste 11 Oeste 0 -- -- 90
2020-11-24 06:00:00 3.1 4 Sur 12 Sudoeste 0 -- -- 89
2020-11-24 05:00:00 3.1 2 Sur 9 Sur 0 -- -- 87
2020-11-24 04:00:00 3.1 2 Sur 7 Sur 0 -- -- 87
2020-11-24 03:00:00 3.3 0 Calma 6 Sudoeste 0 -- -- 86
2020-11-24 02:00:00 3.3 3 Sur 6 Sudoeste 0 -- -- 85
2020-11-24 01:00:00 3.6 2 Sur 6 Sudoeste 0 -- -- 85
2020-11-24 00:00:00 3.7 0 Calma 6 Sudoeste 0 -- -- 84
2020-11-23 23:00:00 4 2 Sudoeste 5 Sudoeste 0 -- -- 83
2020-11-23 22:00:00 4.6 0 Calma 5 Sudoeste 0 -- -- 81
2020-11-23 21:00:00 5 0 Calma 6 Sudoeste 0 -- -- 80
2020-11-23 20:00:00 5.7 0 Calma 6 Sudoeste 0 -- -- 79
2020-11-23 19:00:00 6.7 0 Calma 9 Sur 0 -- -- 77
2020-11-23 18:00:00 8.3 4 Sudoeste 10 Sur 0 -- -- 75
2020-11-23 17:00:00 9.8 5 Sudoeste 10 Sudoeste 0 -- -- 69
2020-11-23 16:00:00 12.1 6 Sudoeste 8 Sudoeste 0 -- -- 61
2020-11-23 15:00:00 13.4 4 Oeste 10 Oeste 0 -- -- 45
2020-11-23 14:00:00 14.1 3 Noroeste 5 Noroeste 0 -- -- 52
2020-11-23 13:00:00 12.3 3 Oeste 4 Sudoeste 0 -- -- 63
2020-11-23 12:00:00 9.9 2 Sudoeste 4 Sudoeste 0 -- -- 67
2020-11-23 11:00:00 5.9 0 Calma 7 Sur 0 -- -- 98
2020-11-23 10:00:00 1.9 0 Calma 5 Sur 0 -- -- 98
2020-11-23 09:00:00 1 0 Calma 6 Sudoeste 0 -- -- 97
2020-11-23 08:00:00 1.2 3 Sudoeste 5 Sudoeste 0 -- -- 97
2020-11-23 07:00:00 1.4 0 Calma 6 Sur 0 -- -- 97
2020-11-23 06:00:00 1.9 2 Sudoeste 6 Sur 0 -- -- 96
2020-11-23 05:00:00 2.5 2 Sudoeste 6 Sudoeste 0 -- -- 97
2020-11-23 04:00:00 3 3 Sur 6 Sur 0 -- -- 96
2020-11-23 03:00:00 3.1 0 Calma 7 Sur 0 -- -- 96
2020-11-23 02:00:00 3.4 2 Sur 6 Sudoeste 0 -- -- 96
2020-11-23 01:00:00 3.6 2 Sur 6 Sudoeste 0 -- -- 95
2020-11-23 00:00:00 3.8 3 Sur 8 Sur 0 -- -- 95
2020-11-22 23:00:00 4.2 3 Sudoeste 5 Sudoeste 0 -- -- 93
2020-11-22 22:00:00 4.4 0 Calma 4 Sudoeste 0 -- -- 92
2020-11-22 21:00:00 5 0 Calma 6 Sudoeste 0 -- -- 90
2020-11-22 20:00:00 5.8 2 Sur 6 Sudoeste 0 -- -- 88
2020-11-22 19:00:00 6.8 2 Sur 8 Sudoeste 0 -- -- 85
2020-11-22 18:00:00 8.2 3 Sur 11 Sudoeste 0 -- -- 81
2020-11-22 17:00:00 9.6 5 Sudoeste 11 Sur 0 -- -- 77
2020-11-22 16:00:00 12.4 7 Sudoeste 10 Sudoeste 0 -- -- 65
2020-11-22 15:00:00 14.9 5 Oeste 10 Oeste 0 -- -- 56
2020-11-22 14:00:00 14.9 4 Oeste 9 Noroeste 0 -- -- 54
2020-11-22 13:00:00 14.1 3 Oeste 5 Oeste 0 -- -- 51
2020-11-22 12:00:00 12.1 3 Oeste 6 Sur 0 -- -- 61
2020-11-22 11:00:00 8.3 3 Sudoeste 8 Sur 0 -- -- 89
2020-11-22 10:00:00 3 0 Calma 6 Sur 0 -- -- 94
2020-11-22 09:00:00 1.8 3 Sur 7 Sur 0 -- -- 92
2020-11-22 08:00:00 1.8 3 Sur 10 Sur 0 -- -- 92
2020-11-22 07:00:00 1.9 3 Sur 8 Sur 0 -- -- 93
2020-11-22 06:00:00 2 4 Sur 8 Sur 0 -- -- 93
2020-11-22 05:00:00 1.9 3 Sur 8 Sur 0 -- -- 94
2020-11-22 04:00:00 2 3 Sur 8 Sudoeste 0 -- -- 94
2020-11-22 03:00:00 2.3 3 Sur 9 Sudoeste 0 -- -- 95
2020-11-22 02:00:00 2.4 3 Sur 9 Sur 0 -- -- 94
2020-11-22 01:00:00 2.6 3 Sur 6 Sudoeste 0 -- -- 95
2020-11-22 00:00:00 2.8 3 Sur 7 Sur 0 -- -- 95
2020-11-21 23:00:00 3.1 3 Sur 6 Sur 0 -- -- 94
2020-11-21 22:00:00 3.5 3 Sur 9 Sur 0 -- -- 93
2020-11-21 21:00:00 3.9 3 Sur 9 Sur 0 -- -- 92
2020-11-21 20:00:00 4.6 0 Calma 7 Sur 0 -- -- 90
2020-11-21 19:00:00 5.8 4 Sur 9 Sur 0 -- -- 89
2020-11-21 18:00:00 7.1 4 Sur 12 Sudoeste 0 -- -- 85
2020-11-21 17:00:00 7.9 5 Sudoeste 9 Sudoeste 0 -- -- 84
2020-11-21 16:00:00 11 6 Sudoeste 13 Oeste 0 -- -- 71
2020-11-21 15:00:00 12.6 6 Oeste 11 Oeste 0 -- -- 61
2020-11-21 14:00:00 13 4 Noroeste 8 Oeste 0 -- -- 61
2020-11-21 13:00:00 11.4 4 Oeste 6 Oeste 0 -- -- 69
2020-11-21 12:00:00 9 3 Noroeste 6 Norte 0 -- -- 90
2020-11-21 11:00:00 5.9 2 Norte 5 Sudoeste 0 -- -- 100
2020-11-21 10:00:00 2 0 Calma 5 Sur 0 -- -- 99
2020-11-21 09:00:00 0.9 0 Calma 4 Sudoeste 0 -- -- 98
2020-11-21 08:00:00 1 0 Calma 4 Sudoeste 0 -- -- 98
2020-11-21 07:00:00 1.3 0 Calma 4 Sur 0 -- -- 97
2020-11-21 06:00:00 1.7 0 Calma 5 Sur 0 -- -- 98
2020-11-21 05:00:00 1.9 0 Calma 6 Sur 0 -- -- 97
2020-11-21 04:00:00 2 0 Calma 4 Sur 0 -- -- 97
2020-11-21 03:00:00 2.4 0 Calma 5 Sur 0 -- -- 97
2020-11-21 02:00:00 2.7 3 Sur 5 Sudoeste 0 -- -- 97
2020-11-21 01:00:00 3.1 3 Sur 6 Sur 0 -- -- 96
2020-11-21 00:00:00 3.4 0 Calma 5 Sur 0 -- -- 96
2020-11-20 23:00:00 3.9 3 Sur 8 Sur 0 -- -- 95
2020-11-20 22:00:00 4.1 3 Sur 6 Sudoeste 0 -- -- 95
2020-11-20 21:00:00 4.4 3 Sudoeste 6 Sudoeste 0 -- -- 94
2020-11-20 20:00:00 5.3 3 Sur 5 Sudoeste 0 -- -- 92
2020-11-20 19:00:00 6.4 0 Calma 6 Sudoeste 0 -- -- 90
2020-11-20 18:00:00 8.2 0 Calma 6 Sudoeste 0 -- -- 87
2020-11-20 17:00:00 10.1 3 Sudoeste 10 Sudeste 0 -- -- 82
2020-11-20 16:00:00 11.3 6 Este 16 Este 0 -- -- 75
2020-11-20 15:00:00 12.3 3 Sur 10 Sur 0 -- -- 75
2020-11-20 14:00:00 12.9 3 Nordeste 9 Oeste 0 -- -- 77
2020-11-20 13:00:00 11.7 3 Norte 10 Norte 0 -- -- 88
2020-11-20 12:00:00 10.5 3 Nordeste 9 Norte 0 -- -- 97
2020-11-20 11:00:00 9.1 2 Nordeste 5 Nordeste 0.2 -- -- 100
2020-11-20 10:00:00 8.3 0 Calma 5 Oeste 0 -- -- 99
2020-11-20 09:00:00 7.8 0 Calma 3 Oeste 0 -- -- 98
2020-11-20 08:00:00 7.7 0 Calma 3 Sur 0 -- -- 98
2020-11-20 07:00:00 7.7 0 Calma 4 Oeste 0 -- -- 98
2020-11-20 06:00:00 7.8 0 Calma 0 Calma 0 -- -- 98
2020-11-20 05:00:00 7.9 0 Calma 2 Sur 0 -- -- 98
2020-11-20 04:00:00 8.1 0 Calma 3 Sudoeste 0 -- -- 98
2020-11-20 03:00:00 8.3 0 Calma 3 Sudoeste 0.2 -- -- 98
2020-11-20 02:00:00 8.5 0 Calma 5 Sur 0 -- -- 98
2020-11-20 01:00:00 8.5 2 Sudoeste 4 Sudoeste 0.4 -- -- 98
2020-11-20 00:00:00 8.4 0 Calma 3 Sur 0.6 -- -- 97
2020-11-19 23:00:00 8.2 0 Calma 4 Sur 0.4 -- -- 97
2020-11-19 22:00:00 8 0 Calma 4 Sudoeste 0 -- -- 96
2020-11-19 21:00:00 8 0 Calma 5 Sudoeste 0 -- -- 95
2020-11-19 20:00:00 9.2 0 Calma 5 Sudoeste 0 -- -- 95
2020-11-19 19:00:00 9.5 0 Calma 6 Este 0.2 -- -- 95
2020-11-19 18:00:00 9.8 0 Calma 6 Nordeste 0.2 -- -- 95
2020-11-19 17:00:00 10 4 Este 16 Este 0.4 -- -- 94
2020-11-19 16:00:00 10.9 4 Este 12 Sur 0.6 -- -- 93
2020-11-19 15:00:00 11.4 4 Nordeste 11 Norte 0.2 -- -- 93
2020-11-19 14:00:00 11.6 0 Calma 11 Norte 0 -- -- 94
2020-11-19 13:00:00 11.3 4 Noroeste 13 Norte 0 -- -- 93
2020-11-19 12:00:00 11.7 4 Noroeste 8 Noroeste 0 -- -- 95
2020-11-19 11:00:00 11.8 0 Calma 14 Norte 0.2 -- -- 95
2020-11-19 10:00:00 11.9 8 Noroeste 19 Norte 0 -- -- 96
2020-11-19 09:00:00 11.9 2 Norte 8 Norte 0.6 -- -- 97
2020-11-19 08:00:00 11.5 0 Calma 4 Sur 0 -- -- 96
2020-11-19 07:00:00 11.4 0 Calma 6 Sudoeste 0 -- -- 96
2020-11-19 06:00:00 10.9 0 Calma 4 Sudoeste 0 -- -- 96
2020-11-19 05:00:00 10.5 3 Este 6 Este 0 -- -- 96
2020-11-19 04:00:00 9.9 3 Sur 5 Sur 0 -- -- 95
2020-11-19 03:00:00 9.5 0 Calma 5 Sur 0 -- -- 94
2020-11-19 02:00:00 10 4 Sur 8 Sur 0 -- -- 94
2020-11-19 01:00:00 10 0 Calma 5 Sur 0 -- -- 92
2020-11-19 00:00:00 10.4 0 Calma 5 Sudoeste 0 -- -- 91
2020-11-18 23:00:00 10.9 0 Calma 6 Sudoeste 0 -- -- 89
2020-11-18 22:00:00 11.3 3 Sur 6 Sudoeste 0 -- -- 89
2020-11-18 21:00:00 11.8 0 Calma 8 Sur 0 -- -- 86
2020-11-18 20:00:00 12.7 0 Calma 6 Sur 0 -- -- 83
2020-11-18 19:00:00 13.8 3 Sur 7 Sudoeste 0 -- -- 80
2020-11-18 18:00:00 15.7 4 Sur 12 Sur 0 -- -- 75
2020-11-18 17:00:00 17.1 5 Sudoeste 13 Sur 0 -- -- 71
2020-11-18 16:00:00 20.7 7 Sudoeste 12 Sudoeste 0 -- -- 57
2020-11-18 15:00:00 23.8 5 Oeste 14 Norte 0 -- -- 48
2020-11-18 14:00:00 22.6 4 Norte 15 Norte 0 -- -- 51
2020-11-18 13:00:00 22.2 5 Nordeste 14 Norte 0 -- -- 48
2020-11-18 12:00:00 20.8 4 Nordeste 15 Norte 0 -- -- 53
2020-11-18 11:00:00 18.3 4 Norte 8 Noroeste 0 -- -- 60
2020-11-18 10:00:00 12.9 3 Noroeste 9 Sudoeste 0 -- -- 77
2020-11-18 09:00:00 12.7 2 Oeste 11 Oeste 0 -- -- 72
2020-11-18 08:00:00 13.8 4 Este 12 Nordeste 0 -- -- 67
2020-11-18 07:00:00 16.3 6 Nordeste 30 Oeste 0 -- -- 54
2020-11-18 06:00:00 17.5 19 Oeste 35 Oeste 0 -- -- 47
2020-11-18 05:00:00 17.8 8 Sur 45 Oeste 0 -- -- 47
2020-11-18 04:00:00 18.6 13 Oeste 45 Oeste 0 -- -- 41
2020-11-18 03:00:00 19.3 14 Oeste 50 Oeste 0 -- -- 36
2020-11-18 02:00:00 19.4 17 Oeste 43 Sudoeste 0 -- -- 36
2020-11-18 01:00:00 18.9 14 Oeste 41 Sudoeste 0 -- -- 37
2020-11-18 00:00:00 18.8 10 Oeste 31 Noroeste 0 -- -- 35
2020-11-17 23:00:00 18.5 13 Oeste 35 Oeste 0 -- -- 38
2020-11-17 22:00:00 16.3 9 Oeste 24 Sudoeste 0 -- -- 48
2020-11-17 21:00:00 14.1 8 Sur 31 Oeste 0 -- -- 54
2020-11-17 20:00:00 11.3 3 Sudeste 13 Sur 0 -- -- 81
2020-11-17 19:00:00 11.5 4 Sur 18 Sur 0 -- -- 83
2020-11-17 18:00:00 12.5 4 Sur 14 Sudoeste 0 -- -- 82
2020-11-17 17:00:00 13.9 5 Sudoeste 12 Sudoeste 0 -- -- 79
2020-11-17 16:00:00 17.9 6 Sudoeste 12 Sudoeste 0 -- -- 64
2020-11-17 15:00:00 19.2 6 Oeste 14 Oeste 0 -- -- 60
2020-11-17 14:00:00 18.4 4 Sudoeste 8 Sudoeste 0 -- -- 58
2020-11-17 13:00:00 17.2 3 Sudoeste 6 Sudoeste 0 -- -- 61
2020-11-17 12:00:00 14.6 0 Calma 4 Sudoeste 0 -- -- 71
2020-11-17 11:00:00 10.5 3 Sudoeste 5 Sudoeste 0 -- -- 99
2020-11-17 10:00:00 6.1 0 Calma 8 Sur 0 -- -- 99
2020-11-17 09:00:00 4.5 0 Calma 6 Sudoeste 0 -- -- 97
2020-11-17 08:00:00 4.4 2 Sur 6 Sudoeste 0 -- -- 98
2020-11-17 07:00:00 4.6 3 Sur 6 Sudoeste 0 -- -- 97
2020-11-17 06:00:00 5 3 Sur 6 Sudoeste 0 -- -- 98
2020-11-17 05:00:00 5.3 0 Calma 7 Sur 0 -- -- 97
2020-11-17 04:00:00 5.6 3 Sur 5 Sudoeste 0 -- -- 97
2020-11-17 03:00:00 5.9 3 Sudoeste 6 Sur 0 -- -- 97
2020-11-17 02:00:00 6 3 Sur 6 Sur 0 -- -- 97
2020-11-17 01:00:00 6.2 0 Calma 6 Sur 0 -- -- 97
2020-11-17 00:00:00 6.5 4 Sudoeste 7 Sudoeste 0 -- -- 96
2020-11-16 23:00:00 6.6 0 Calma 5 Sur 0 -- -- 96
2020-11-16 22:00:00 6.9 3 Sur 7 Sudoeste 0 -- -- 95
2020-11-16 21:00:00 7.4 2 Sur 10 Sur 0 -- -- 94
2020-11-16 20:00:00 8.1 0 Calma 8 Sur 0 -- -- 92
2020-11-16 19:00:00 9.3 4 Sudoeste 10 Sur 0 -- -- 90
2020-11-16 18:00:00 10.5 4 Sur 9 Sur 0 -- -- 88
2020-11-16 17:00:00 12 5 Sudoeste 10 Oeste 0 -- -- 85
2020-11-16 16:00:00 14.5 5 Sudoeste 11 Oeste 0 -- -- 78
2020-11-16 15:00:00 14.9 3 Sur 7 Sur 0 -- -- 70
2020-11-16 14:00:00 13.5 3 Sudoeste 6 Sudoeste 0 -- -- 85
2020-11-16 13:00:00 12.6 2 Norte 13 Noroeste 0 -- -- 88
2020-11-16 12:00:00 13.6 3 Oeste 6 Sudoeste 0 -- -- 84
2020-11-16 11:00:00 12.1 0 Calma 9 Sur 0 -- -- 98
2020-11-16 10:00:00 11.3 3 Oeste 5 Sudoeste 0.6 -- -- 98
2020-11-16 09:00:00 11 2 Norte 5 Nordeste 0.4 -- -- 97
2020-11-16 08:00:00 11 0 Calma 4 Sur 0 -- -- 97
2020-11-16 07:00:00 11 2 Sudoeste 4 Oeste 0.8 -- -- 97
2020-11-16 06:00:00 11.2 0 Calma 5 Sudoeste 0.2 -- -- 97
2020-11-16 05:00:00 11.3 0 Calma 5 Sur 0.4 -- -- 97
2020-11-16 04:00:00 11.3 0 Calma 5 Sur 0.2 -- -- 96
2020-11-16 03:00:00 11.4 2 Sur 5 Sudoeste 0 -- -- 96
2020-11-16 02:00:00 11.6 4 Sudoeste 6 Sudoeste 0.4 -- -- 96
2020-11-16 01:00:00 11.9 0 Calma 6 Sudeste 0 -- -- 96
2020-11-16 00:00:00 11.9 2 Sudeste 6 Sudeste 0 -- -- 95
2020-11-15 23:00:00 12.1 0 Calma 5 Sur 1.4 -- -- 95
2020-11-15 22:00:00 12.5 2 Noroeste 5 Sudoeste 1.2 -- -- 94
2020-11-15 21:00:00 12.7 3 Sudoeste 12 Este 0.6 -- -- 93
2020-11-15 20:00:00 13.5 0 Calma 6 Sur 2.6 -- -- 94
2020-11-15 19:00:00 13.7 0 Calma 5 Noroeste 3.4 -- -- 93
2020-11-15 18:00:00 14 0 Calma 17 Sur 0 -- -- 89
2020-11-15 17:00:00 15.3 3 Sur 12 Sudeste 0 -- -- 86
2020-11-15 16:00:00 16.8 2 Nordeste 22 Sur 0 -- -- 80
2020-11-15 15:00:00 20.5 2 Norte 23 Norte 0 -- -- 59
2020-11-15 14:00:00 20.8 5 Norte 29 Norte 0 -- -- 56
2020-11-15 13:00:00 20.8 13 Nordeste 30 Norte 0 -- -- 55
2020-11-15 12:00:00 19.9 9 Oeste 31 Sudoeste 0 -- -- 58
2020-11-15 11:00:00 19.4 9 Oeste 28 Norte 0 -- -- 58
2020-11-15 10:00:00 19 10 Norte 40 Norte 0 -- -- 59
2020-11-15 09:00:00 18.6 9 Noroeste 31 Norte 0 -- -- 59
2020-11-15 08:00:00 17.9 9 Noroeste 41 Sudoeste 0 -- -- 59
2020-11-15 07:00:00 17.4 14 Oeste 33 Sudoeste 0 -- -- 63
2020-11-15 06:00:00 17.5 12 Oeste 39 Oeste 0 -- -- 61
2020-11-15 05:00:00 18 21 Oeste 58 Sudoeste 0 -- -- 57
2020-11-15 04:00:00 17.4 17 Sudoeste 42 Sudoeste 0 -- -- 58
2020-11-15 03:00:00 17.5 12 Oeste 40 Oeste 0 -- -- 59
2020-11-15 02:00:00 17.3 15 Oeste 45 Sudoeste 0 -- -- 60
2020-11-15 01:00:00 17.5 18 Oeste 46 Sudoeste 0 -- -- 61
2020-11-15 00:00:00 16.6 12 Sur 33 Sudoeste 0 -- -- 63
2020-11-14 23:00:00 17 13 Oeste 50 Oeste 0 -- -- 58
2020-11-14 22:00:00 16.5 5 Este 39 Oeste 0 -- -- 60
2020-11-14 21:00:00 16.9 9 Sudoeste 49 Oeste 0 -- -- 58
2020-11-14 20:00:00 16.9 15 Oeste 41 Oeste 0 -- -- 58
2020-11-14 19:00:00 16.8 15 Sudoeste 40 Oeste 0 -- -- 58
2020-11-14 18:00:00 17.5 18 Sudoeste 44 Oeste 0 -- -- 55
2020-11-14 17:00:00 17.7 10 Oeste 40 Sur 0 -- -- 55
2020-11-14 16:00:00 18.4 11 Sudoeste 44 Sudoeste 0 -- -- 54
2020-11-14 15:00:00 19.4 21 Oeste 58 Oeste 0 -- -- 50
2020-11-14 14:00:00 18.1 12 Sudoeste 50 Sudoeste 0 -- -- 51
2020-11-14 13:00:00 18.3 21 Oeste 51 Oeste 0 -- -- 50
2020-11-14 12:00:00 17.8 9 Sudoeste 53 Sudoeste 0 -- -- 53
2020-11-14 11:00:00 15.9 17 Oeste 49 Oeste 0 -- -- 55
2020-11-14 10:00:00 15.2 21 Oeste 51 Oeste 0 -- -- 58
2020-11-14 09:00:00 14 14 Oeste 43 Sudoeste 0 -- -- 63
2020-11-14 08:00:00 12.7 5 Sudeste 17 Sur 0 -- -- 69
2020-11-14 07:00:00 13.4 7 Sudeste 28 Sur 0 -- -- 63
2020-11-14 06:00:00 12.6 5 Este 23 Sudoeste 0 -- -- 69
2020-11-14 05:00:00 13 5 Este 26 Sudoeste 0 -- -- 66
2020-11-14 04:00:00 14.2 5 Este 41 Oeste 0 -- -- 61
2020-11-14 03:00:00 12.2 13 Sudoeste 36 Sur 0 -- -- 72
2020-11-14 02:00:00 7.5 5 Sur 12 Sur 0 -- -- 93
2020-11-14 01:00:00 7.3 0 Calma 10 Sudoeste 0 -- -- 95
2020-11-14 00:00:00 7.1 5 Sur 12 Sudoeste 0 -- -- 95
2020-11-13 23:00:00 7.1 4 Sudeste 12 Sudoeste 0 -- -- 94
2020-11-13 22:00:00 7.3 0 Calma 9 Sudoeste 0 -- -- 93
2020-11-13 21:00:00 7.9 2 Sudoeste 8 Sudoeste 0 -- -- 91
2020-11-13 20:00:00 8.7 4 Sudoeste 11 Oeste 0 -- -- 89
2020-11-13 19:00:00 9.8 3 Sudoeste 8 Sudoeste 0 -- -- 86
2020-11-13 18:00:00 11.4 2 Sudoeste 12 Sur 0 -- -- 81
2020-11-13 17:00:00 13 8 Sudoeste 13 Sudoeste 0 -- -- 74
2020-11-13 16:00:00 17.3 6 Oeste 13 Oeste 0 -- -- 58
2020-11-13 15:00:00 18.9 5 Oeste 11 Oeste 0 -- -- 55
2020-11-13 14:00:00 18.8 4 Sudoeste 9 Sudoeste 0 -- -- 57
2020-11-13 13:00:00 17.4 5 Sudoeste 8 Sudoeste 0 -- -- 60
2020-11-13 12:00:00 15.7 4 Sudoeste 6 Sudoeste 0 -- -- 65
2020-11-13 11:00:00 12.4 3 Sudoeste 6 Sudoeste 0 -- -- 80
2020-11-13 10:00:00 9.3 0 Calma 5 Sur 0 -- -- 92
2020-11-13 09:00:00 8.6 0 Calma 6 Sur 0 -- -- 92
2020-11-13 08:00:00 8.6 2 Sudoeste 5 Sur 0 -- -- 91
2020-11-13 07:00:00 8.8 0 Calma 11 Sudoeste 0 -- -- 91
2020-11-13 06:00:00 8.6 2 Sudeste 11 Sur 0 -- -- 91
2020-11-13 05:00:00 8.7 3 Sudoeste 10 Oeste 0 -- -- 90
2020-11-13 04:00:00 9.1 3 Norte 10 Sur 0 -- -- 90
2020-11-13 03:00:00 8.6 2 Oeste 8 Norte 0 -- -- 90
2020-11-13 02:00:00 8.8 4 Sudoeste 8 Sudoeste 0 -- -- 90
2020-11-13 01:00:00 8.5 4 Sudoeste 12 Oeste 0 -- -- 90
2020-11-13 00:00:00 8.4 3 Sudoeste 9 Sudoeste 0 -- -- 89
2020-11-12 23:00:00 9 3 Sudoeste 10 Sur 0 -- -- 88
2020-11-12 22:00:00 9.5 3 Sur 8 Sur 0 -- -- 88
2020-11-12 21:00:00 10.3 3 Sur 11 Sur 0 -- -- 87
2020-11-12 20:00:00 11.4 2 Sur 7 Sur 0 -- -- 85
2020-11-12 19:00:00 12.7 0 Calma 7 Sudoeste 0 -- -- 81
2020-11-12 18:00:00 14 3 Sudoeste 11 Sudoeste 0 -- -- 79
2020-11-12 17:00:00 15.6 6 Sudoeste 11 Sur 0 -- -- 73
2020-11-12 16:00:00 19.6 5 Sudoeste 11 Oeste 0 -- -- 60
2020-11-12 15:00:00 21.3 6 Oeste 11 Oeste 0 -- -- 52
2020-11-12 14:00:00 21.5 5 Noroeste 13 Noroeste 0 -- -- 50
2020-11-12 13:00:00 20.5 3 Oeste 6 Sudoeste 0 -- -- 54
2020-11-12 12:00:00 18.7 3 Oeste 6 Sudoeste 0 -- -- 57
2020-11-12 11:00:00 15.1 0 Calma 4 Sudeste 0 -- -- 69
2020-11-12 10:00:00 10.1 3 Sur 9 Sur 0 -- -- 94
2020-11-12 09:00:00 7.7 2 Sur 8 Sudoeste 0 -- -- 93
2020-11-12 08:00:00 7.1 2 Sur 6 Sudoeste 0 -- -- 90
2020-11-12 07:00:00 7.3 3 Sur 7 Sur 0 -- -- 88
2020-11-12 06:00:00 8 0 Calma 6 Sudoeste 0 -- -- 86
2020-11-12 05:00:00 8.8 2 Sur 6 Sudoeste 0 -- -- 83
2020-11-12 04:00:00 9.4 3 Sudoeste 9 Sur 0 -- -- 82
2020-11-12 03:00:00 10.2 2 Sur 7 Sur 0 -- -- 79
2020-11-12 02:00:00 10.9 0 Calma 8 Sur 0 -- -- 78
2020-11-12 01:00:00 10.9 3 Sur 9 Este 0 -- -- 77
2020-11-12 00:00:00 11.2 0 Calma 10 Sudoeste 0 -- -- 76
2020-11-11 23:00:00 12.3 3 Este 13 Este 0 -- -- 66
2020-11-11 22:00:00 13.7 4 Sudeste 20 Oeste 0 -- -- 58
2020-11-11 21:00:00 14.4 4 Este 30 Norte 0 -- -- 58
2020-11-11 20:00:00 15.5 8 Noroeste 32 Noroeste 0 -- -- 51
2020-11-11 19:00:00 15.3 4 Este 27 Oeste 0 -- -- 51
2020-11-11 18:00:00 15.4 6 Sur 35 Sudoeste 0 -- -- 50
2020-11-11 17:00:00 17 15 Oeste 33 Oeste 0 -- -- 48
2020-11-11 16:00:00 18.2 6 Nordeste 40 Sudoeste 0 -- -- 48
2020-11-11 15:00:00 19.2 5 Sudeste 19 Noroeste 0 -- -- 48
2020-11-11 14:00:00 18.2 6 Este 38 Sudoeste 0 -- -- 49
2020-11-11 13:00:00 16.8 14 Oeste 42 Oeste 0 -- -- 51
2020-11-11 12:00:00 17.8 15 Oeste 35 Sudoeste 0 -- -- 51
2020-11-11 11:00:00 17.4 6 Sur 35 Sudoeste 0 -- -- 51
2020-11-11 10:00:00 15.2 9 Oeste 35 Oeste 0 -- -- 56
2020-11-11 09:00:00 13.8 12 Oeste 44 Oeste 0 -- -- 61
2020-11-11 08:00:00 13.9 13 Oeste 46 Sudoeste 0 -- -- 62
2020-11-11 07:00:00 12.7 13 Sudoeste 35 Sudoeste 0 -- -- 70
2020-11-11 06:00:00 7.7 4 Este 23 Oeste 0 -- -- 97
2020-11-11 05:00:00 7.1 5 Oeste 14 Sudoeste 0 -- -- 98
2020-11-11 04:00:00 6.8 4 Sur 10 Sudoeste 0 -- -- 97
2020-11-11 03:00:00 7 4 Sudoeste 11 Sudoeste 0 -- -- 97
2020-11-11 02:00:00 6.9 2 Sur 8 Sur 0 -- -- 96
2020-11-11 01:00:00 7.4 3 Sudoeste 6 Sur 0 -- -- 96
2020-11-11 00:00:00 7.8 4 Sudoeste 6 Sudoeste 0 -- -- 96
2020-11-10 23:00:00 8 0 Calma 7 Sudoeste 0 -- -- 95
2020-11-10 22:00:00 8.3 2 Sur 5 Sur 0 -- -- 95
2020-11-10 21:00:00 8.9 3 Sudoeste 6 Sur 0 -- -- 93
2020-11-10 20:00:00 9.8 3 Sur 7 Sur 0 -- -- 92
2020-11-10 19:00:00 11 2 Sudoeste 10 Sur 0 -- -- 90
2020-11-10 18:00:00 12.7 3 Sur 9 Sur 0 -- -- 88
2020-11-10 17:00:00 14.5 4 Sudoeste 8 Sudoeste 0 -- -- 85
2020-11-10 16:00:00 16.9 5 Sudoeste 12 Sur 0 -- -- 77
2020-11-10 15:00:00 14.6 6 Sudoeste 9 Sudoeste 0 -- -- 86
2020-11-10 14:00:00 16 5 Sudoeste 9 Sudoeste 0 -- -- 79
2020-11-10 13:00:00 14.4 0 Calma 6 Norte 0.8 -- -- 90
2020-11-10 12:00:00 14.6 4 Nordeste 10 Norte 0 -- -- 85
2020-11-10 11:00:00 13 0 Calma 3 Norte 0.2 -- -- 97
2020-11-10 10:00:00 12.1 0 Calma 3 Norte 0 -- -- 97
2020-11-10 09:00:00 11.1 0 Calma 3 Norte 0 -- -- 97
2020-11-10 08:00:00 10.5 0 Calma 2 Norte 0 -- -- 96
2020-11-10 07:00:00 10.5 0 Calma 4 Sudeste 0.8 -- -- 96
2020-11-10 06:00:00 10.4 2 Sudoeste 4 Sudoeste -- -- -- 94
2020-11-10 05:00:00 10.3 0 Calma 4 Sudoeste 0 -- -- 93
2020-11-10 04:00:00 10.1 0 Calma 2 Sur 0 -- -- 93
2020-11-10 03:00:00 9.8 0 Calma 6 Sudoeste 0 -- -- 93
2020-11-10 02:00:00 9.3 0 Calma 9 Sur 0 -- -- 93
2020-11-10 01:00:00 8.8 2 Sur 6 Sur 0 -- -- 91
2020-11-10 00:00:00 9.1 2 Sudoeste 6 Sudoeste 0 -- -- 89
2020-11-09 23:00:00 9.3 0 Calma 6 Sudeste 0 -- -- 86
2020-11-09 22:00:00 9.4 0 Calma 7 Sudoeste 0 -- -- 86
2020-11-09 21:00:00 9.9 3 Sur 8 Sur 0 -- -- 83
2020-11-09 20:00:00 10.7 4 Sudoeste 9 Sur 0 -- -- 80
2020-11-09 19:00:00 12 3 Sudoeste 9 Sur 0 -- -- 75
2020-11-09 18:00:00 13.7 6 Sur 12 Sudoeste 0 -- -- 69
2020-11-09 17:00:00 15.3 6 Sudoeste 10 Sudoeste 0 -- -- 68
2020-11-09 16:00:00 19 4 Oeste 12 Noroeste 0 -- -- 56
2020-11-09 15:00:00 20.1 6 Oeste 15 Norte 0 -- -- 52
2020-11-09 14:00:00 20.5 4 Noroeste 17 Norte 0 -- -- 46
2020-11-09 13:00:00 19.4 5 Nordeste 38 Sudoeste 0 -- -- 52
2020-11-09 12:00:00 18.3 20 Oeste 39 Oeste 0 -- -- 53
2020-11-09 11:00:00 17.7 7 Noroeste 29 Sudoeste 0 -- -- 57
2020-11-09 10:00:00 15.7 10 Oeste 33 Sudoeste 0 -- -- 61
2020-11-09 09:00:00 14.9 14 Sudoeste 28 Oeste 0 -- -- 65
2020-11-09 08:00:00 14.4 5 Sudeste 15 Sudoeste 0 -- -- 68
2020-11-09 07:00:00 14 4 Sudoeste 12 Sudoeste 0 -- -- 70
2020-11-09 06:00:00 14.9 3 Este 19 Este 0 -- -- 65
2020-11-09 05:00:00 14.6 5 Oeste 11 Sur 0 -- -- 68
2020-11-09 04:00:00 15.7 6 Sudeste 22 Sur 0 -- -- 61
2020-11-09 03:00:00 15.7 3 Nordeste 33 Oeste 0 -- -- 58
2020-11-09 02:00:00 15.6 7 Oeste 23 Sur 0 -- -- 59
2020-11-09 01:00:00 15.8 5 Sudeste 28 Sudoeste 0 -- -- 61
2020-11-09 00:00:00 16.6 18 Sudoeste 60 Sudoeste 0 -- -- 58
2020-11-08 23:00:00 16.4 7 Oeste 33 Sudoeste 0 -- -- 60
2020-11-08 22:00:00 16.8 8 Oeste 19 Oeste 0 -- -- 58
2020-11-08 21:00:00 17.2 5 Noroeste 30 Oeste 0 -- -- 57
2020-11-08 20:00:00 16.1 14 Sudoeste 29 Sudoeste 0 -- -- 63
2020-11-08 19:00:00 16.7 3 Sudeste 28 Sudoeste 0 -- -- 62
2020-11-08 18:00:00 17.3 8 Sudoeste 23 Oeste 0 -- -- 58
2020-11-08 17:00:00 17 3 Norte 20 Sur 0 -- -- 64
2020-11-08 16:00:00 17.9 5 Sudeste 23 Sudoeste 0 -- -- 57
2020-11-08 15:00:00 20.2 12 Sudoeste 30 Oeste 0 -- -- 49
2020-11-08 14:00:00 20.3 8 Sudoeste 29 Oeste 0 -- -- 47
2020-11-08 13:00:00 19.6 3 Nordeste 13 Sur 0 -- -- 51
2020-11-08 12:00:00 17.5 5 Oeste 19 Sudoeste 0 -- -- 55
2020-11-08 11:00:00 17.8 5 Este 25 Sudoeste 0 -- -- 50
2020-11-08 10:00:00 15.8 6 Oeste 20 Oeste 0 -- -- 56
2020-11-08 09:00:00 13.3 3 Norte 10 Este 0 -- -- 71
2020-11-08 08:00:00 15.5 4 Sur 31 Sudoeste 0 -- -- 57
2020-11-08 07:00:00 15.8 12 Sudoeste 45 Sudoeste 0 -- -- 58
2020-11-08 06:00:00 15.9 15 Oeste 37 Oeste 0 -- -- 58
2020-11-08 05:00:00 15.9 8 Oeste 31 Oeste 0 -- -- 59
2020-11-08 04:00:00 14.9 3 Sudeste 26 Sudoeste 0 -- -- 65
2020-11-08 03:00:00 15.3 5 Oeste 21 Oeste 0 -- -- 62
2020-11-08 02:00:00 16 11 Oeste 30 Oeste 0 -- -- 59
2020-11-08 01:00:00 15.9 13 Oeste 31 Sudoeste 0 -- -- 60
2020-11-08 00:00:00 15.6 12 Oeste 27 Oeste 0 -- -- 60
2020-11-07 23:00:00 16.4 13 Oeste 37 Oeste 0 -- -- 56
2020-11-07 22:00:00 16 9 Oeste 28 Oeste 0 -- -- 59
2020-11-07 21:00:00 15.8 11 Oeste 30 Oeste 0 -- -- 60
2020-11-07 20:00:00 15.2 4 Noroeste 27 Sudoeste 0 -- -- 67
2020-11-07 19:00:00 16.3 6 Oeste 37 Sudoeste 0 -- -- 61
2020-11-07 18:00:00 16.8 7 Oeste 37 Sudoeste 0 -- -- 60
2020-11-07 17:00:00 17.4 14 Sudoeste 39 Sudoeste 0 -- -- 61
2020-11-07 16:00:00 18 4 Norte 22 Sudoeste 0 -- -- 63
2020-11-07 15:00:00 17 3 Sudeste 24 Oeste 0 -- -- 69
2020-11-07 14:00:00 17.4 4 Oeste 17 Este 0 -- -- 68
2020-11-07 13:00:00 16.7 6 Sudoeste 16 Sudoeste 0 -- -- 75
2020-11-07 12:00:00 15.4 5 Noroeste 22 Sudoeste 0 -- -- 86
2020-11-07 11:00:00 13.4 3 Nordeste 10 Nordeste 0 -- -- 96
2020-11-07 10:00:00 12.9 2 Sudoeste 7 Norte 0 -- -- 96
2020-11-07 09:00:00 12.6 3 Sudeste 13 Sudoeste 0.2 -- -- 94
2020-11-07 08:00:00 12.9 2 Este 24 Oeste 3.2 -- -- 92
2020-11-07 07:00:00 13.7 10 Sudoeste 31 Oeste 10 -- -- 84
2020-11-07 06:00:00 16.1 4 Nordeste 23 Sudoeste 2.2 -- -- 85
2020-11-07 05:00:00 17.7 17 Sudoeste 43 Sudoeste 0 -- -- 72
2020-11-07 04:00:00 17.8 12 Sur 48 Sur 0 -- -- 68
2020-11-07 03:00:00 17.8 16 Sudoeste 39 Oeste 0 -- -- 67
2020-11-07 02:00:00 18 13 Sudoeste 50 Sur 0 -- -- 66
2020-11-07 01:00:00 18.3 18 Sudoeste 54 Sudoeste 0 -- -- 64
2020-11-07 00:00:00 18.1 14 Sudoeste 48 Sudoeste 0 -- -- 66
2020-11-06 23:00:00 18.3 18 Sur 45 Sudoeste 0 -- -- 65
2020-11-06 22:00:00 18.1 14 Sudoeste 58 Sudoeste -- -- -- 66
2020-11-06 21:00:00 18.1 24 Sudoeste 62 Sur 0 -- -- 66
2020-11-06 20:00:00 18.2 28 Sudoeste 70 Sudoeste 0 -- -- 66
2020-11-06 19:00:00 18.2 21 Sudoeste 69 Sudoeste 0 -- -- 67
2020-11-06 18:00:00 18.3 31 Sudoeste 62 Sudoeste 0 -- -- 67
2020-11-06 17:00:00 18 16 Sur 59 Oeste 0 -- -- 68
2020-11-06 16:00:00 18.5 21 Sudoeste 58 Sudoeste 0 -- -- 65
2020-11-06 15:00:00 18.4 19 Sur 62 Sudoeste 0 -- -- 65
2020-11-06 14:00:00 19.6 22 Sudoeste 60 Sudoeste 0 -- -- 61
2020-11-06 13:00:00 19.4 22 Sudoeste 62 Sudoeste 0 -- -- 61
2020-11-06 12:00:00 17.9 26 Sudoeste 86 Sudoeste 0 -- -- 67
2020-11-06 11:00:00 18.2 37 Sudoeste 71 Sudoeste 0 -- -- 65
2020-11-06 10:00:00 17.6 29 Sudoeste 74 Sudoeste 0 -- -- 66
2020-11-06 09:00:00 16.7 18 Sudoeste 51 Sudoeste 0 -- -- 67
2020-11-06 08:00:00 16.3 24 Sudoeste 58 Sudoeste 0 -- -- 68
2020-11-06 07:00:00 15.8 22 Sudoeste 59 Sudoeste 0 -- -- 71
2020-11-06 06:00:00 15.9 27 Sudoeste 55 Sudoeste 0 -- -- 71
2020-11-06 05:00:00 15.3 13 Sudoeste 40 Sur 0 -- -- 73
2020-11-06 04:00:00 15.4 14 Sudoeste 56 Sudoeste 0 -- -- 72
2020-11-06 03:00:00 15.6 21 Sudoeste 45 Sur 0 -- -- 70
2020-11-06 02:00:00 15.4 23 Sudoeste 54 Sudoeste 0 -- -- 70
2020-11-06 01:00:00 15.4 13 Sur 39 Sur 0 -- -- 70
2020-11-06 00:00:00 15.4 17 Sudoeste 45 Sur 0 -- -- 69
2020-11-05 23:00:00 15.6 17 Sudoeste 40 Sudoeste 0 -- -- 68
2020-11-05 22:00:00 14.5 8 Sudeste 28 Oeste 0 -- -- 73
2020-11-05 21:00:00 13.7 3 Nordeste 25 Norte 0 -- -- 75
2020-11-05 20:00:00 14.1 5 Nordeste 16 Oeste 0 -- -- 72
2020-11-05 19:00:00 14.2 5 Este 21 Sudeste 0 -- -- 70
2020-11-05 18:00:00 14.4 9 Norte 28 Sur 0 -- -- 66
2020-11-05 17:00:00 15 4 Nordeste 12 Noroeste 0 -- -- 70
2020-11-05 16:00:00 18.5 4 Sur 17 Sur 0 -- -- 55
2020-11-05 15:00:00 17.7 4 Norte 10 Noroeste 0 -- -- 61
2020-11-05 14:00:00 15.8 4 Nordeste 11 Norte 0 -- -- 67
2020-11-05 13:00:00 15.2 4 Norte 8 Norte 0 -- -- 69
2020-11-05 12:00:00 12.8 3 Sur 8 Oeste 0 -- -- 73
2020-11-05 11:00:00 11.3 5 Noroeste 13 Norte 0 -- -- 73
2020-11-05 10:00:00 8.1 0 Calma 5 Sudoeste 0 -- -- 94
2020-11-05 09:00:00 6.4 0 Calma 6 Sur 0 -- -- 95
2020-11-05 08:00:00 5.8 2 Sur 5 Sur 0 -- -- 95
2020-11-05 07:00:00 6.1 0 Calma 4 Sur 0 -- -- 94
2020-11-05 06:00:00 6.7 0 Calma 5 Sur 0 -- -- 94
2020-11-05 05:00:00 6.5 0 Calma 4 Sur 0 -- -- 92
2020-11-05 04:00:00 6.7 0 Calma 7 Sur 0 -- -- 91
2020-11-05 03:00:00 7.3 3 Sur 7 Sur 0 -- -- 87
2020-11-05 02:00:00 8 3 Sudoeste 6 Sur 0 -- -- 87
2020-11-05 01:00:00 8.3 0 Calma 8 Sudeste 0 -- -- 80
2020-11-05 00:00:00 8.7 4 Sur 10 Sur 0 -- -- 77
2020-11-04 23:00:00 8.9 5 Sudoeste 18 Sur 0 -- -- 74
2020-11-04 22:00:00 8.9 6 Sur 13 Sur 0 -- -- 74
2020-11-04 21:00:00 9 3 Sudoeste 14 Sur 0 -- -- 73
2020-11-04 20:00:00 8.9 4 Sur 10 Sudoeste 0 -- -- 77
2020-11-04 19:00:00 9 5 Sur 13 Sur 0 -- -- 76
2020-11-04 18:00:00 9.4 5 Sudeste 15 Sudeste 0 -- -- 73
2020-11-04 17:00:00 10 3 Este 19 Este 0 -- -- 74
2020-11-04 16:00:00 10.4 3 Este 18 Sur 0 -- -- 73
2020-11-04 15:00:00 11 5 Sudeste 22 Sur 0 -- -- 70
2020-11-04 14:00:00 11.2 5 Sudeste 17 Nordeste 0 -- -- 71
2020-11-04 13:00:00 13.1 4 Sudoeste 11 Sudoeste 0 -- -- 75
2020-11-04 12:00:00 10.3 5 Sudoeste 11 Oeste 0 -- -- 83
2020-11-04 11:00:00 9.6 4 Oeste 9 Norte 0 -- -- 98
2020-11-04 10:00:00 8 3 Nordeste 8 Norte 0 -- -- 99
2020-11-04 09:00:00 7.5 2 Norte 5 Norte 0.2 -- -- 99
2020-11-04 08:00:00 7.1 0 Calma 3 Oeste 0.2 -- -- 98
2020-11-04 07:00:00 6.9 2 Oeste 4 Noroeste 0 -- -- 98
2020-11-04 06:00:00 6.7 0 Calma 6 Norte 0 -- -- 98
2020-11-04 05:00:00 6.7 2 Sudeste 6 Sudeste 0 -- -- 98
2020-11-04 04:00:00 6.8 0 Calma 5 Sur 0 -- -- 98
2020-11-04 03:00:00 6.8 2 Oeste 5 Oeste 0 -- -- 98
2020-11-04 02:00:00 7.4 0 Calma 7 Sudoeste 0 -- -- 97
2020-11-04 01:00:00 7.4 2 Sudoeste 4 Oeste 0.2 -- -- 97
2020-11-04 00:00:00 7.4 3 Oeste 8 Oeste 0 -- -- 97
2020-11-03 23:00:00 8.1 0 Calma 5 Sur 0.6 -- -- 97
2020-11-03 22:00:00 8.1 3 Oeste 6 Oeste 0.4 -- -- 96
2020-11-03 21:00:00 8.5 2 Sur 6 Oeste 0.4 -- -- 96
2020-11-03 20:00:00 8.6 0 Calma 4 Sudoeste 0 -- -- 95
2020-11-03 19:00:00 9.1 3 Oeste 7 Sur 0.6 -- -- 95
2020-11-03 18:00:00 9.6 0 Calma 6 Sudoeste 0.2 -- -- 94
2020-11-03 17:00:00 10 4 Oeste 9 Noroeste 0.2 -- -- 93
2020-11-03 16:00:00 10.6 3 Sudoeste 9 Sudoeste 0 -- -- 93
2020-11-03 15:00:00 10.3 5 Nordeste 24 Este 2 -- -- 93
2020-11-03 14:00:00 11.2 0 Calma 12 Este 0.8 -- -- 94
2020-11-03 13:00:00 11 6 Norte 15 Norte 0.4 -- -- 94
2020-11-03 12:00:00 11.5 5 Noroeste 13 Noroeste 0 -- -- 93
2020-11-03 11:00:00 11.4 0 Calma 6 Sur 0 -- -- 97
2020-11-03 10:00:00 10.5 0 Calma 5 Sudoeste 0 -- -- 97
2020-11-03 09:00:00 10.2 0 Calma 8 Sur 0 -- -- 97
2020-11-03 08:00:00 10.1 3 Sudoeste 12 Sudeste 0.4 -- -- 97
2020-11-03 07:00:00 10.1 2 Sur 6 Sur 0.4 -- -- 97
2020-11-03 06:00:00 10.2 0 Calma 6 Sur 0 -- -- 96
2020-11-03 05:00:00 10.3 0 Calma 8 Nordeste 0.2 -- -- 96
2020-11-03 04:00:00 10.5 3 Sudoeste 12 Norte 0.6 -- -- 96
2020-11-03 03:00:00 11.1 0 Calma 4 Sur 1.8 -- -- 96
2020-11-03 02:00:00 11.2 0 Calma 5 Sudoeste 4 -- -- 96
2020-11-03 01:00:00 11.4 0 Calma 5 Norte 0.6 -- -- 95
2020-11-03 00:00:00 11.6 2 Noroeste 8 Norte 0.4 -- -- 95
2020-11-02 23:00:00 11.9 0 Calma 4 Sudoeste 0 -- -- 94
2020-11-02 22:00:00 12 2 Sur 8 Sur 0 -- -- 93
2020-11-02 21:00:00 12 4 Sur 10 Sur 0 -- -- 93
2020-11-02 20:00:00 12.3 4 Sur 14 Sudoeste 0.2 -- -- 92
2020-11-02 19:00:00 12.9 6 Este 18 Este 0.6 -- -- 91
2020-11-02 18:00:00 13.8 4 Sur 17 Sudeste 0.4 -- -- 89
2020-11-02 17:00:00 15.3 5 Sudoeste 18 Este 0 -- -- 83
2020-11-02 16:00:00 18 7 Este 33 Nordeste 0 -- -- 76
2020-11-02 15:00:00 24.2 5 Norte 18 Oeste 0 -- -- 52
2020-11-02 14:00:00 23.8 9 Noroeste 24 Noroeste 0 -- -- 49
2020-11-02 13:00:00 23.1 8 Oeste 33 Oeste 0 -- -- 52
2020-11-02 12:00:00 20.8 11 Oeste 31 Oeste 0 -- -- 58
2020-11-02 11:00:00 18.6 3 Sudoeste 12 Norte 0 -- -- 67
2020-11-02 10:00:00 18.6 5 Este 19 Norte 0 -- -- 66
2020-11-02 09:00:00 18.7 4 Oeste 17 Norte 0 -- -- 64
2020-11-02 08:00:00 19 4 Sur 28 Sudoeste 0 -- -- 64
2020-11-02 07:00:00 18.9 6 Sur 32 Oeste 0 -- -- 63
2020-11-02 06:00:00 19.3 19 Oeste 41 Oeste 0 -- -- 62
2020-11-02 05:00:00 19.5 16 Oeste 40 Sudoeste 0 -- -- 63
2020-11-02 04:00:00 19.7 10 Sudoeste 31 Oeste 0 -- -- 63
2020-11-02 03:00:00 19.8 9 Sudoeste 29 Sudoeste 0 -- -- 62
2020-11-02 02:00:00 19.6 10 Sudoeste 28 Sudoeste 0 -- -- 61
2020-11-02 01:00:00 20 7 Sudoeste 50 Sudoeste 0 -- -- 61
2020-11-02 00:00:00 20.4 12 Oeste 35 Sudoeste 0 -- -- 59
2020-11-01 23:00:00 20.1 7 Oeste 45 Sudoeste 0 -- -- 61
2020-11-01 22:00:00 20.2 9 Oeste 33 Oeste 0 -- -- 60
2020-11-01 21:00:00 20.6 15 Oeste 35 Norte 0 -- -- 59
2020-11-01 20:00:00 20.6 17 Oeste 39 Oeste 0 -- -- 59
2020-11-01 19:00:00 20.9 15 Oeste 35 Oeste 0 -- -- 57
2020-11-01 18:00:00 20.7 9 Oeste 25 Oeste 0 -- -- 60
2020-11-01 17:00:00 22.1 4 Sudeste 19 Noroeste 0 -- -- 56
2020-11-01 16:00:00 22 3 Nordeste 11 Este 0 -- -- 59
2020-11-01 15:00:00 22.5 4 Nordeste 22 Oeste 0 -- -- 57
2020-11-01 14:00:00 23.8 8 Noroeste 23 Norte 0 -- -- 52
2020-11-01 13:00:00 23.9 4 Noroeste 29 Oeste 0 -- -- 52
2020-11-01 12:00:00 22.3 12 Noroeste 33 Oeste 0 -- -- 53
2020-11-01 11:00:00 21.6 15 Oeste 29 Oeste 0 -- -- 53
2020-11-01 10:00:00 19.6 5 Oeste 30 Sudoeste 0 -- -- 57
2020-11-01 09:00:00 19.3 8 Oeste 24 Oeste 0 -- -- 56
2020-11-01 08:00:00 19.2 4 Oeste 25 Noroeste 0 -- -- 56
2020-11-01 07:00:00 19.5 9 Oeste 24 Oeste 0 -- -- 54
2020-11-01 06:00:00 19.3 8 Oeste 29 Oeste 0 -- -- 54
2020-11-01 05:00:00 19.5 15 Oeste 35 Oeste 0 -- -- 54
2020-11-01 04:00:00 19.8 12 Noroeste 34 Noroeste 0 -- -- 54
2020-11-01 03:00:00 19.8 11 Noroeste 33 Oeste 0 -- -- 53
2020-11-01 02:00:00 19.2 7 Oeste 27 Oeste 0 -- -- 56
2020-11-01 01:00:00 19 8 Oeste 39 Oeste 0 -- -- 56
2020-11-01 00:00:00 19.3 12 Noroeste 32 Oeste 0 -- -- 56
2020-10-31 23:00:00 18.5 9 Noroeste 32 Norte 0 -- -- 58
2020-10-31 22:00:00 19.2 9 Oeste 28 Noroeste 0 -- -- 55
2020-10-31 21:00:00 18.2 6 Sudoeste 27 Oeste 0 -- -- 60
2020-10-31 20:00:00 18 6 Sur 16 Oeste 0 -- -- 59
2020-10-31 19:00:00 19.1 7 Noroeste 25 Oeste 0 -- -- 55
2020-10-31 18:00:00 20.4 5 Noroeste 28 Oeste 0 -- -- 53
2020-10-31 17:00:00 22.6 5 Este 23 Noroeste 0 -- -- 49
2020-10-31 16:00:00 24.5 10 Oeste 23 Oeste 0 -- -- 41
2020-10-31 15:00:00 24.7 8 Noroeste 22 Norte 0 -- -- 43
2020-10-31 14:00:00 22.2 5 Nordeste 28 Norte 0 -- -- 46
2020-10-31 13:00:00 23.4 9 Noroeste 36 Oeste 0 -- -- 41
2020-10-31 12:00:00 23.2 6 Oeste 32 Oeste 0 -- -- 41
2020-10-31 11:00:00 22 5 Oeste 28 Oeste 0 -- -- 44
2020-10-31 10:00:00 19.4 8 Oeste 23 Sudoeste 0 -- -- 52
2020-10-31 09:00:00 17.2 5 Sur 29 Sudoeste 0 -- -- 58
2020-10-31 08:00:00 18.2 9 Sudoeste 38 Sudoeste 0 -- -- 53
2020-10-31 07:00:00 16.5 5 Sudoeste 23 Oeste 0 -- -- 60
2020-10-31 06:00:00 17.7 8 Oeste 26 Oeste 0 -- -- 55
2020-10-31 05:00:00 15.5 5 Oeste 31 Sudoeste 0 -- -- 67
2020-10-31 04:00:00 18.5 13 Oeste 32 Oeste 0 -- -- 55
2020-10-31 03:00:00 19 14 Oeste 30 Noroeste 0 -- -- 54
2020-10-31 02:00:00 14.2 9 Norte 29 Noroeste 0 -- -- 73
2020-10-31 01:00:00 12.3 3 Sur 17 Norte 0 -- -- 82
2020-10-31 00:00:00 12.9 9 Oeste 28 Oeste 0 -- -- 82
2020-10-30 23:00:00 9.5 4 Sudoeste 13 Sudeste 0 -- -- 95
2020-10-30 22:00:00 9.2 5 Sur 10 Sur 0 -- -- 93
2020-10-30 21:00:00 10.1 2 Sur 6 Sudoeste 0 -- -- 91
2020-10-30 20:00:00 11.4 0 Calma 6 Sur 0 -- -- 87
2020-10-30 19:00:00 13 3 Sudoeste 8 Sur 0 -- -- 82
2020-10-30 18:00:00 14.8 4 Sudoeste 12 Sur 0 -- -- 74
2020-10-30 17:00:00 18 7 Sudoeste 12 Sudoeste 0 -- -- 60
2020-10-30 16:00:00 22.7 4 Oeste 13 Oeste 0 -- -- 52
2020-10-30 15:00:00 24 8 Oeste 15 Norte 0 -- -- 45
2020-10-30 14:00:00 23.9 5 Norte 12 Norte 0 -- -- 43
2020-10-30 13:00:00 22.4 4 Nordeste 17 Nordeste 0 -- -- 46
2020-10-30 12:00:00 20.5 5 Nordeste 15 Norte 0 -- -- 54
2020-10-30 11:00:00 17.3 3 Noroeste 10 Sur 0 -- -- 73
2020-10-30 10:00:00 12.4 3 Sudoeste 11 Sur 0 -- -- 91
2020-10-30 09:00:00 8.7 4 Oeste 12 Oeste 0 -- -- 95
2020-10-30 08:00:00 8.5 2 Sudeste 12 Sudoeste 0 -- -- 94
2020-10-30 07:00:00 8.9 3 Oeste 10 Oeste 0 -- -- 95
2020-10-30 06:00:00 8.5 3 Sudeste 10 Sudoeste 0 -- -- 97
2020-10-30 05:00:00 8.1 4 Sudeste 11 Sudeste 0 -- -- 97
2020-10-30 04:00:00 7.7 5 Sudeste 11 Oeste 0 -- -- 98
2020-10-30 03:00:00 7.9 4 Sudeste 12 Sur 0 -- -- 97
2020-10-30 02:00:00 7.7 4 Sur 10 Sur 0 -- -- 96
2020-10-30 01:00:00 7.8 2 Sur 10 Sur 0 -- -- 95
2020-10-30 00:00:00 8.2 3 Sur 11 Oeste 0 -- -- 95
2020-10-29 23:00:00 8.6 4 Sur 10 Sur 0 -- -- 94
2020-10-29 22:00:00 9.2 4 Sur 9 Sudoeste 0 -- -- 92
2020-10-29 21:00:00 10 2 Sur 7 Sudoeste 0 -- -- 90
2020-10-29 20:00:00 11.1 2 Sur 7 Sur 0 -- -- 87
2020-10-29 19:00:00 12.7 2 Sudoeste 9 Sur 0 -- -- 83
2020-10-29 18:00:00 14.7 5 Sudoeste 11 Sudoeste 0 -- -- 78
2020-10-29 17:00:00 17.4 5 Sudoeste 9 Sudoeste 0 -- -- 69
2020-10-29 16:00:00 20.3 5 Oeste 12 Oeste 0 -- -- 59
2020-10-29 15:00:00 21.8 6 Oeste 10 Oeste 0 -- -- 53
2020-10-29 14:00:00 21.4 3 Noroeste 11 Norte 0 -- -- 49
2020-10-29 13:00:00 19.9 5 Nordeste 14 Nordeste 0 -- -- 55
2020-10-29 12:00:00 18 5 Nordeste 13 Norte 0 -- -- 58
2020-10-29 11:00:00 14.3 3 Norte 6 Oeste 0 -- -- 76
2020-10-29 10:00:00 10.5 0 Calma 13 Sur 0 -- -- 97
2020-10-29 09:00:00 6.8 3 Sudoeste 7 Sur 0 -- -- 97
2020-10-29 08:00:00 6.7 0 Calma 8 Sur 0 -- -- 96
2020-10-29 07:00:00 7 2 Sur 5 Sur 0 -- -- 96
2020-10-29 06:00:00 7.6 2 Sudoeste 6 Sudoeste 0 -- -- 96
2020-10-29 05:00:00 8 0 Calma 4 Sudoeste 0 -- -- 96
2020-10-29 04:00:00 7.3 4 Sur 9 Sur 0 -- -- 95
2020-10-29 03:00:00 7.5 3 Sudoeste 6 Sudoeste 0 -- -- 94
2020-10-29 02:00:00 7.4 0 Calma 8 Sur 0 -- -- 93
2020-10-29 01:00:00 7.8 2 Sudoeste 6 Sur 0 -- -- 91
2020-10-29 00:00:00 8.5 0 Calma 4 Sur 0 -- -- 90
2020-10-28 23:00:00 9.5 4 Sudoeste 8 Sur 0 -- -- 88
2020-10-28 22:00:00 9.5 3 Sur 8 Sur 0 -- -- 88
2020-10-28 21:00:00 10.3 0 Calma 5 Sudoeste 0 -- -- 84
2020-10-28 20:00:00 11.6 2 Sur 8 Sur 0 -- -- 82
2020-10-28 19:00:00 13.5 2 Sur 7 Sur 0 -- -- 81
2020-10-28 18:00:00 14.9 0 Calma 6 Sur 0 -- -- 78
2020-10-28 17:00:00 16.4 2 Sur 9 Sur 0 -- -- 69
2020-10-28 16:00:00 16.2 3 Sur 9 Sur 0 -- -- 70
2020-10-28 15:00:00 15.6 2 Sur 9 Sudeste 0 -- -- 74
2020-10-28 14:00:00 15.9 0 Calma 10 Sur 0 -- -- 76
2020-10-28 13:00:00 15.9 2 Sur 6 Sur 0 -- -- 76
2020-10-28 12:00:00 14.7 2 Sur 5 Sur 0 -- -- 87
2020-10-28 11:00:00 13.5 0 Calma 4 Norte 0 -- -- 93
2020-10-28 10:00:00 12.9 0 Calma 4 Norte 0 -- -- 92
2020-10-28 09:00:00 12.1 0 Calma 6 Sur 0 -- -- 92
2020-10-28 08:00:00 11.9 0 Calma 4 Sudoeste 0 -- -- 91
2020-10-28 07:00:00 11.6 2 Noroeste 6 Noroeste 0 -- -- 90
2020-10-28 06:00:00 11.8 0 Calma 6 Sur 0 -- -- 88
2020-10-28 05:00:00 12.3 2 Sudoeste 5 Sur 0 -- -- 87
2020-10-28 04:00:00 12.4 0 Calma 5 Norte 0 -- -- 85
2020-10-28 03:00:00 12.9 0 Calma 12 Oeste 0 -- -- 80
2020-10-28 02:00:00 13.4 3 Noroeste 17 Oeste 0 -- -- 76
2020-10-28 01:00:00 13.4 4 Sudeste 16 Sudoeste 0 -- -- 76
2020-10-28 00:00:00 14.6 3 Sudeste 30 Oeste 0 -- -- 70
2020-10-27 23:00:00 15.3 13 Oeste 35 Oeste 0 -- -- 65
2020-10-27 22:00:00 15.3 12 Noroeste 35 Noroeste 0 -- -- 65
2020-10-27 21:00:00 15.5 13 Noroeste 35 Oeste 0 -- -- 63
2020-10-27 20:00:00 15.3 7 Nordeste 36 Oeste 0 -- -- 63
2020-10-27 19:00:00 15.5 9 Sudoeste 25 Sudoeste 0 -- -- 61
2020-10-27 18:00:00 15.4 6 Norte 44 Noroeste 0 -- -- 64
2020-10-27 17:00:00 15.7 19 Oeste 43 Oeste 0 -- -- 60
2020-10-27 16:00:00 15.6 5 Noroeste 33 Oeste 0 -- -- 61
2020-10-27 15:00:00 15.9 6 Nordeste 30 Sudoeste 0 -- -- 58
2020-10-27 14:00:00 16.9 8 Sudoeste 29 Sudoeste 0 -- -- 54
2020-10-27 13:00:00 17.7 5 Nordeste 23 Norte 0 -- -- 53
2020-10-27 12:00:00 16.6 8 Sudoeste 32 Oeste 0 -- -- 56
2020-10-27 11:00:00 13.7 6 Oeste 20 Sudoeste 0 -- -- 67
2020-10-27 10:00:00 12.5 4 Este 20 Sudoeste 0 -- -- 68
2020-10-27 09:00:00 11.7 11 Oeste 32 Oeste 0 -- -- 65
2020-10-27 08:00:00 9.2 3 Este 10 Norte 0 -- -- 86
2020-10-27 07:00:00 7.5 3 Sudeste 10 Norte 0 -- -- 97
2020-10-27 06:00:00 6.7 3 Este 10 Sudoeste 0 -- -- 98
2020-10-27 05:00:00 6.4 3 Este 6 Sudeste 0 -- -- 97
2020-10-27 04:00:00 6.3 3 Sudeste 8 Sudeste 0 -- -- 97
2020-10-27 03:00:00 6.4 2 Sudeste 8 Sudoeste 0 -- -- 96
2020-10-27 02:00:00 6.4 0 Calma 5 Sur 0 -- -- 95
2020-10-27 01:00:00 6.7 0 Calma 5 Sur 0 -- -- 95
2020-10-27 00:00:00 7.2 0 Calma 5 Sur 0 -- -- 94
2020-10-26 23:00:00 7.4 0 Calma 5 Sur 0 -- -- 93
2020-10-26 22:00:00 7.8 3 Sur 4 Sur 0 -- -- 93
2020-10-26 21:00:00 8.1 0 Calma 6 Sudeste 0 -- -- 92
2020-10-26 20:00:00 8.5 0 Calma 10 Sur 0 -- -- 91
2020-10-26 19:00:00 9 4 Sur 15 Sur 0 -- -- 87
2020-10-26 18:00:00 10.9 0 Calma 8 Sur 0 -- -- 81
2020-10-26 17:00:00 12.7 0 Calma 12 Este 0 -- -- 79
2020-10-26 16:00:00 13.4 2 Nordeste 14 Noroeste 0 -- -- 70
2020-10-26 15:00:00 13.1 8 Nordeste 25 Noroeste 0 -- -- 68
2020-10-26 14:00:00 14.3 5 Norte 17 Este 0 -- -- 65
2020-10-26 13:00:00 14.3 3 Nordeste 15 Noroeste 0 -- -- 69
2020-10-26 12:00:00 13.1 5 Nordeste 19 Noroeste 0 -- -- 68
2020-10-26 11:00:00 11 6 Norte 16 Norte 0 -- -- 80
2020-10-26 10:00:00 8 3 Norte 9 Sudoeste 0 -- -- 99
2020-10-26 09:00:00 6.4 0 Calma 5 Sudeste 0 -- -- 99
2020-10-26 08:00:00 6 0 Calma 5 Sur 0 -- -- 99
2020-10-26 07:00:00 5.5 0 Calma 5 Sudeste 0 -- -- 98
2020-10-26 06:00:00 5 2 Sur 5 Sur 0 -- -- 98
2020-10-26 05:00:00 4.9 0 Calma 6 Sudeste 0 -- -- 97
2020-10-26 04:00:00 4.8 0 Calma 6 Sur 0 -- -- 96
2020-10-26 03:00:00 5.4 0 Calma 5 Sudeste 0 -- -- 96
2020-10-26 02:00:00 6.2 0 Calma 7 Sudoeste 0.2 -- -- 96
2020-10-26 01:00:00 7.2 2 Sur 10 Sur 0 -- -- 96
2020-10-26 00:00:00 8.2 0 Calma 9 Sur 0 -- -- 95